Time;durP1;ratioP1;P1;durP2;ratioP2;P2;SDS_P1;SDS_P2;PMS_P1;PMS_P2;Temp;Humidity;BMP_temperature;BMP_pressure;BME280_temperature;BME280_humidity;BME280_pressure;Samples;Min_cycle;Max_cycle;Signal;HPM_P1;HPM_P2
2023/09/28 00:03:00;;;;;;;22.30;20.20;;;14.80;99.90;;;;;;4944379;28;20134;-80
2023/09/28 00:05:27;;;;;;;22.95;20.65;;;14.70;99.90;;;;;;4945915;28;20047;-79
2023/09/28 00:07:55;;;;;;;22.83;20.88;;;14.60;99.90;;;;;;4958114;28;20731;-79
2023/09/28 00:10:23;;;;;;;21.15;19.35;;;14.80;99.90;;;;;;4973141;28;20047;-78
2023/09/28 00:12:52;;;;;;;22.30;20.30;;;14.80;99.90;;;;;;4974012;28;20061;-78
2023/09/28 00:15:21;;;;;;;23.20;21.15;;;14.80;99.90;;;;;;4959132;28;20529;-79
2023/09/28 00:17:48;;;;;;;21.77;19.80;;;14.90;99.90;;;;;;4958194;28;20050;-78
2023/09/28 00:20:20;;;;;;;21.20;19.30;;;15.00;99.90;;;;;;4962167;28;20080;-78
2023/09/28 00:22:49;;;;;;;22.73;20.58;;;15.10;99.90;;;;;;4960891;28;20042;-78
2023/09/28 00:25:17;;;;;;;21.95;20.15;;;15.30;99.90;;;;;;4969288;28;20114;-80
2023/09/28 00:27:45;;;;;;;21.40;19.63;;;15.20;99.90;;;;;;4961675;28;20039;-78
2023/09/28 00:30:20;;;;;;;23.40;21.17;;;15.30;99.90;;;;;;4945963;28;20066;-79
2023/09/28 00:32:48;;;;;;;23.63;21.45;;;15.40;99.90;;;;;;4946759;28;20073;-79
2023/09/28 00:35:16;;;;;;;23.10;21.23;;;15.20;99.90;;;;;;4926845;28;20047;-79
2023/09/28 00:37:43;;;;;;;23.88;21.73;;;15.10;99.90;;;;;;4946136;28;20046;-78
2023/09/28 00:40:27;;;;;;;23.33;21.42;;;15.20;99.90;;;;;;4931918;28;20135;-80
2023/09/28 00:42:55;;;;;;;22.98;20.85;;;15.20;99.90;;;;;;4944720;28;20043;-80
2023/09/28 00:45:24;;;;;;;22.13;20.33;;;15.20;99.90;;;;;;4946907;28;20062;-79
2023/09/28 00:47:54;;;;;;;21.70;19.88;;;15.20;99.90;;;;;;4932578;28;20070;-78
2023/09/28 00:50:22;;;;;;;20.90;19.38;;;15.30;99.90;;;;;;4944902;28;20046;-80
2023/09/28 00:52:54;;;;;;;22.15;20.35;;;15.40;99.90;;;;;;4929174;28;20054;-79
2023/09/28 00:55:22;;;;;;;21.42;19.67;;;15.50;99.90;;;;;;4945090;28;20707;-80
2023/09/28 00:57:50;;;;;;;22.02;19.95;;;15.90;99.90;;;;;;4945654;28;20042;-80
2023/09/28 01:00:26;;;;;;;23.58;21.48;;;16.00;99.90;;;;;;4932981;28;20051;-80
2023/09/28 01:02:57;;;;;;;22.55;20.75;;;16.20;99.90;;;;;;4933521;28;20039;-81
2023/09/28 01:05:33;;;;;;;23.13;21.20;;;16.30;99.90;;;;;;4946740;28;20363;-79
2023/09/28 01:08:12;;;;;;;23.67;21.92;;;16.30;99.90;;;;;;4942952;28;20050;-80
2023/09/28 01:10:42;;;;;;;23.85;22.08;;;16.30;99.90;;;;;;4943966;28;20046;-80
2023/09/28 01:13:11;;;;;;;24.20;22.42;;;16.30;99.90;;;;;;4963961;28;20039;-79
2023/09/28 01:15:43;;;;;;;24.02;22.17;;;16.20;99.90;;;;;;4927677;28;20113;-80
2023/09/28 01:18:12;;;;;;;24.77;22.70;;;16.20;99.90;;;;;;4943233;28;20047;-77
2023/09/28 01:20:40;;;;;;;23.85;21.80;;;16.20;99.90;;;;;;4946391;28;20150;-78
2023/09/28 01:23:08;;;;;;;25.42;23.33;;;16.10;99.90;;;;;;4956955;28;20218;-80
2023/09/28 01:25:37;;;;;;;25.63;23.45;;;16.10;99.90;;;;;;4947834;28;20051;-78
2023/09/28 01:28:05;;;;;;;25.58;23.35;;;16.00;99.90;;;;;;4931013;28;20062;-79
2023/09/28 01:30:34;;;;;;;24.75;22.75;;;15.90;99.90;;;;;;4952660;28;20352;-79
2023/09/28 01:33:02;;;;;;;24.10;22.08;;;15.80;99.90;;;;;;4943545;28;20058;-80
2023/09/28 01:35:29;;;;;;;24.63;22.27;;;15.80;99.90;;;;;;4946661;28;20054;-80
2023/09/28 01:38:09;;;;;;;24.48;22.27;;;15.70;99.90;;;;;;4955151;28;20050;-80
2023/09/28 01:40:36;;;;;;;25.25;23.13;;;15.60;99.90;;;;;;4958047;28;20046;-80
2023/09/28 01:43:04;;;;;;;24.27;22.27;;;15.60;99.90;;;;;;4940845;28;20057;-80
2023/09/28 01:45:30;;;;;;;23.90;21.95;;;15.70;99.90;;;;;;4940725;28;20127;-79
2023/09/28 01:47:57;;;;;;;26.40;24.02;;;15.80;99.90;;;;;;4938017;28;20041;-80
2023/09/28 01:50:24;;;;;;;25.08;22.80;;;15.80;99.90;;;;;;4942005;28;20465;-80
2023/09/28 01:52:51;;;;;;;26.42;23.92;;;15.70;99.90;;;;;;4952741;28;20057;-79
2023/09/28 01:55:18;;;;;;;24.73;22.63;;;15.80;99.90;;;;;;4943372;28;20053;-80
2023/09/28 01:57:45;;;;;;;26.00;23.60;;;15.60;99.90;;;;;;4929660;28;20043;-79
2023/09/28 02:00:16;;;;;;;26.13;23.73;;;15.40;99.90;;;;;;4925429;28;20676;-80
2023/09/28 02:02:43;;;;;;;25.92;23.27;;;15.40;99.90;;;;;;4945395;28;20054;-80
2023/09/28 02:05:13;;;;;;;24.55;22.55;;;15.30;99.90;;;;;;4946026;28;20051;-80
2023/09/28 02:07:40;;;;;;;24.83;22.60;;;15.30;99.90;;;;;;4931320;28;20117;-80
2023/09/28 02:10:09;;;;;;;25.35;23.00;;;15.30;99.90;;;;;;4945365;28;20042;-79
2023/09/28 02:12:39;;;;;;;25.77;23.20;;;15.40;99.90;;;;;;4956765;28;20438;-80
2023/09/28 02:15:08;;;;;;;25.20;22.90;;;15.40;99.90;;;;;;4943003;28;20521;-79
2023/09/28 02:17:37;;;;;;;26.45;24.00;;;15.40;99.90;;;;;;4943165;28;20045;-79
2023/09/28 02:20:08;;;;;;;25.80;23.38;;;15.30;99.90;;;;;;4926332;28;20077;-78
2023/09/28 02:22:41;;;;;;;26.50;24.27;;;15.30;99.90;;;;;;4944170;28;20066;-77
2023/09/28 02:25:26;;;;;;;26.27;23.95;;;15.10;99.90;;;;;;4945556;28;20101;-78
2023/09/28 02:27:53;;;;;;;27.08;24.20;;;15.00;99.90;;;;;;4968633;28;20121;-80
2023/09/28 02:30:22;;;;;;;27.88;25.13;;;15.00;99.90;;;;;;4969009;28;20066;-80
2023/09/28 02:32:51;;;;;;;29.25;26.42;;;14.90;99.90;;;;;;4941958;28;20051;-78
2023/09/28 02:35:19;;;;;;;28.85;26.15;;;14.90;99.90;;;;;;4938352;28;20051;-79
2023/09/28 02:37:48;;;;;;;28.38;25.77;;;14.90;99.90;;;;;;4944049;28;20074;-78
2023/09/28 02:40:17;;;;;;;28.92;26.23;;;15.00;99.90;;;;;;4969739;28;20085;-78
2023/09/28 02:42:44;;;;;;;28.85;25.80;;;15.10;99.90;;;;;;4958270;28;20683;-78
2023/09/28 02:45:11;;;;;;;28.27;25.52;;;15.00;99.90;;;;;;4942458;28;20050;-79
2023/09/28 02:47:41;;;;;;;27.15;24.60;;;15.00;99.90;;;;;;4947146;28;20047;-77
2023/09/28 02:50:09;;;;;;;26.83;24.27;;;15.20;99.90;;;;;;4942976;28;20047;-77
2023/09/28 02:52:41;;;;;;;26.98;24.58;;;15.10;99.90;;;;;;4955657;28;20078;-77
2023/09/28 02:55:13;;;;;;;26.35;23.92;;;15.10;99.90;;;;;;4943310;28;20409;-78
2023/09/28 02:57:41;;;;;;;27.95;25.05;;;15.10;99.90;;;;;;4949941;28;20046;-79
2023/09/28 03:00:27;;;;;;;27.35;24.55;;;15.00;99.90;;;;;;4930655;28;20699;-78
2023/09/28 03:02:57;;;;;;;28.65;25.90;;;15.00;99.90;;;;;;4959602;28;20057;-78
2023/09/28 03:05:26;;;;;;;28.30;25.70;;;15.10;99.90;;;;;;4970402;28;20109;-78
2023/09/28 03:07:53;;;;;;;29.27;26.33;;;15.20;99.90;;;;;;4940933;28;20094;-78
2023/09/28 03:10:21;;;;;;;30.23;27.15;;;15.20;99.90;;;;;;4955492;28;20138;-79
2023/09/28 03:12:51;;;;;;;28.30;25.63;;;15.20;99.90;;;;;;4931758;28;20137;-77
2023/09/28 03:15:20;;;;;;;27.02;24.63;;;15.20;99.90;;;;;;4940750;28;20531;-79
2023/09/28 03:17:46;;;;;;;26.88;24.27;;;15.30;99.90;;;;;;4929503;28;20218;-79
2023/09/28 03:20:17;;;;;;;27.52;24.83;;;15.20;99.90;;;;;;4924871;28;20046;-79
2023/09/28 03:22:46;;;;;;;26.63;24.33;;;15.20;99.90;;;;;;4954927;28;20066;-78
2023/09/28 03:25:17;;;;;;;27.65;25.05;;;15.30;99.90;;;;;;4955174;28;20129;-79
2023/09/28 03:27:49;;;;;;;25.23;22.60;;;15.20;99.90;;;;;;4935294;28;20042;-79
2023/09/28 03:30:48;;;;;;;25.80;23.30;;;15.20;99.90;;;;;;4922456;28;20046;-78
2023/09/28 03:33:33;;;;;;;25.67;23.25;;;15.10;99.90;;;;;;4951563;28;20113;-79
2023/09/28 03:35:59;;;;;;;25.00;22.50;;;15.20;99.90;;;;;;4959830;28;20291;-79
2023/09/28 03:38:26;;;;;;;25.35;22.80;;;15.20;99.90;;;;;;4946772;28;20452;-78
2023/09/28 03:40:53;;;;;;;24.40;22.25;;;15.20;99.90;;;;;;4944860;28;20050;-78
2023/09/28 03:43:20;;;;;;;24.25;22.10;;;15.20;99.90;;;;;;4945430;28;20082;-76
2023/09/28 03:45:46;;;;;;;24.33;22.25;;;15.10;99.90;;;;;;4959931;28;20101;-78
2023/09/28 03:48:13;;;;;;;24.88;22.55;;;15.10;99.90;;;;;;4934728;28;20134;-77
2023/09/28 03:50:40;;;;;;;25.65;23.23;;;15.20;99.90;;;;;;4947902;28;20075;-78
2023/09/28 03:53:07;;;;;;;24.88;22.75;;;15.10;99.90;;;;;;4927831;28;20524;-78
2023/09/28 03:55:34;;;;;;;24.98;22.73;;;15.10;99.90;;;;;;4944397;28;20513;-78
2023/09/28 03:58:01;;;;;;;26.15;23.95;;;14.90;99.90;;;;;;4955250;28;20051;-78
2023/09/28 04:00:30;;;;;;;25.15;22.92;;;14.70;99.90;;;;;;4946547;28;20055;-78
2023/09/28 04:02:56;;;;;;;24.65;22.42;;;14.80;99.90;;;;;;4940217;28;20069;-80
2023/09/28 04:05:23;;;;;;;25.25;22.80;;;14.80;99.90;;;;;;4942471;28;21444;-80
2023/09/28 04:07:51;;;;;;;24.38;22.33;;;14.80;99.90;;;;;;4954842;28;20142;-79
2023/09/28 04:10:20;;;;;;;24.30;21.77;;;14.80;99.90;;;;;;4962293;28;20097;-76
2023/09/28 04:12:52;;;;;;;22.95;20.85;;;14.80;99.90;;;;;;4951958;28;20149;-78
2023/09/28 04:15:19;;;;;;;22.55;20.45;;;14.70;99.90;;;;;;4958750;28;20057;-76
2023/09/28 04:17:46;;;;;;;20.90;18.98;;;14.70;99.90;;;;;;4955787;28;20061;-77
2023/09/28 04:20:13;;;;;;;22.05;19.92;;;14.80;99.90;;;;;;4964926;28;20035;-78
2023/09/28 04:22:40;;;;;;;21.80;19.80;;;14.80;99.90;;;;;;4962347;28;20145;-78
2023/09/28 04:25:07;;;;;;;21.00;19.30;;;14.80;99.90;;;;;;4940203;28;20043;-78
2023/09/28 04:27:34;;;;;;;21.80;19.83;;;14.80;99.90;;;;;;4957887;28;20058;-78
2023/09/28 04:30:03;;;;;;;20.85;19.13;;;14.80;99.90;;;;;;4943782;28;20050;-78
2023/09/28 04:32:31;;;;;;;22.52;20.52;;;14.80;99.90;;;;;;4941938;28;20618;-78
2023/09/28 04:34:58;;;;;;;23.13;21.02;;;14.80;99.90;;;;;;4946626;28;20071;-78
2023/09/28 04:37:26;;;;;;;21.63;19.85;;;14.90;99.90;;;;;;4957746;28;20138;-76
2023/09/28 04:39:53;;;;;;;22.38;20.50;;;14.80;99.90;;;;;;4931250;28;20043;-76
2023/09/28 04:42:26;;;;;;;23.30;21.33;;;14.80;99.90;;;;;;4946199;28;20528;-77
2023/09/28 04:44:54;;;;;;;23.38;21.30;;;14.70;99.90;;;;;;4970355;28;20042;-79
2023/09/28 04:47:20;;;;;;;25.42;22.85;;;14.80;99.90;;;;;;4944260;28;20054;-78
2023/09/28 04:49:48;;;;;;;23.30;21.20;;;14.70;99.90;;;;;;4959844;28;20074;-76
2023/09/28 04:52:17;;;;;;;23.38;21.25;;;14.70;99.90;;;;;;4941152;28;20042;-77
2023/09/28 04:54:44;;;;;;;22.73;20.67;;;14.80;99.90;;;;;;4933496;28;20101;-79
2023/09/28 04:57:11;;;;;;;22.58;20.45;;;14.80;99.90;;;;;;4942552;28;20051;-77
2023/09/28 04:59:38;;;;;;;22.45;20.33;;;14.70;99.90;;;;;;4946356;28;20125;-79
2023/09/28 05:02:06;;;;;;;20.92;19.00;;;14.60;99.90;;;;;;4944816;28;20086;-79
2023/09/28 05:04:34;;;;;;;21.58;19.48;;;14.50;99.90;;;;;;4930370;28;20052;-78
2023/09/28 05:07:02;;;;;;;19.35;17.60;;;14.50;99.90;;;;;;4955157;28;20792;-76
2023/09/28 05:09:29;;;;;;;20.60;18.73;;;14.50;99.90;;;;;;4961569;28;20059;-77
2023/09/28 05:11:59;;;;;;;19.23;17.80;;;14.50;99.90;;;;;;4946183;28;20073;-78
2023/09/28 05:14:26;;;;;;;20.40;18.80;;;14.60;99.90;;;;;;4950131;28;20065;-79
2023/09/28 05:16:54;;;;;;;20.58;18.75;;;14.50;99.90;;;;;;4945804;28;20047;-78
2023/09/28 05:19:21;;;;;;;19.05;17.55;;;14.60;99.90;;;;;;4941859;28;20062;-77
2023/09/28 05:21:49;;;;;;;19.25;17.55;;;14.60;99.90;;;;;;4962419;28;20563;-78
2023/09/28 05:24:15;;;;;;;17.08;15.75;;;14.70;99.90;;;;;;4944317;28;20129;-78
2023/09/28 05:26:42;;;;;;;16.30;15.27;;;14.70;99.90;;;;;;4962038;28;20508;-77
2023/09/28 05:29:10;;;;;;;20.75;18.88;;;14.80;99.90;;;;;;4975141;28;20082;-79
2023/09/28 05:31:37;;;;;;;18.63;17.33;;;14.90;99.90;;;;;;4933762;28;20682;-77
2023/09/28 05:34:05;;;;;;;17.83;16.67;;;15.00;99.90;;;;;;4946755;28;20197;-79
2023/09/28 05:36:31;;;;;;;20.15;18.75;;;15.10;99.90;;;;;;4947998;28;20074;-78
2023/09/28 05:38:58;;;;;;;20.10;18.58;;;15.20;99.90;;;;;;4946097;28;20061;-78
2023/09/28 05:41:25;;;;;;;19.75;18.35;;;15.10;99.90;;;;;;4935635;28;20049;-77
2023/09/28 05:43:52;;;;;;;19.60;18.30;;;15.20;99.90;;;;;;4927816;28;20138;-78
2023/09/28 05:46:19;;;;;;;19.40;17.75;;;15.20;99.90;;;;;;4939473;28;20117;-78
2023/09/28 05:48:47;;;;;;;19.13;17.52;;;15.20;99.90;;;;;;4929205;28;20115;-77
2023/09/28 05:51:13;;;;;;;19.13;17.67;;;15.10;99.90;;;;;;4945833;28;20664;-78
2023/09/28 05:53:41;;;;;;;19.25;17.85;;;15.10;99.90;;;;;;4942177;28;20062;-78
2023/09/28 05:56:10;;;;;;;19.55;17.92;;;15.00;99.90;;;;;;4956605;28;20051;-78
2023/09/28 05:58:37;;;;;;;20.48;18.33;;;15.00;99.90;;;;;;4922820;28;20142;-78
2023/09/28 06:01:06;;;;;;;19.85;18.10;;;14.90;99.90;;;;;;4943718;28;20612;-77
2023/09/28 06:03:35;;;;;;;20.27;18.80;;;14.90;99.90;;;;;;4940809;28;20043;-78
2023/09/28 06:06:16;;;;;;;19.92;18.42;;;14.80;99.90;;;;;;4942087;28;20525;-79
2023/09/28 06:08:46;;;;;;;20.23;18.77;;;14.80;99.90;;;;;;4939378;28;20034;-79
2023/09/28 06:11:14;;;;;;;20.67;18.98;;;14.80;99.90;;;;;;4931326;28;20039;-78
2023/09/28 06:13:41;;;;;;;19.75;18.25;;;14.70;99.90;;;;;;4948025;28;20043;-77
2023/09/28 06:16:28;;;;;;;20.90;19.52;;;14.70;99.90;;;;;;4945868;28;20042;-77
2023/09/28 06:18:56;;;;;;;20.33;18.90;;;14.80;99.90;;;;;;4977915;28;20047;-77
2023/09/28 06:21:23;;;;;;;19.35;18.05;;;14.80;99.90;;;;;;4950279;28;20146;-78
2023/09/28 06:23:49;;;;;;;20.27;18.77;;;14.90;99.90;;;;;;4951278;28;20047;-78
2023/09/28 06:26:16;;;;;;;21.00;19.20;;;15.00;99.90;;;;;;4932581;28;20043;-77
2023/09/28 06:29:04;;;;;;;20.52;18.70;;;15.10;99.90;;;;;;4959234;28;20103;-77
2023/09/28 06:31:30;;;;;;;20.40;19.00;;;15.20;99.90;;;;;;4954514;28;20044;-77
2023/09/28 06:33:57;;;;;;;21.35;19.73;;;15.20;99.90;;;;;;4955147;28;20054;-77
2023/09/28 06:36:24;;;;;;;21.63;20.02;;;15.20;99.90;;;;;;4954811;28;20054;-77
2023/09/28 06:39:08;;;;;;;22.67;21.02;;;15.30;99.90;;;;;;4954378;28;20481;-77
2023/09/28 06:41:37;;;;;;;21.80;20.13;;;15.40;99.90;;;;;;4943843;28;20034;-79
2023/09/28 06:44:05;;;;;;;20.73;19.33;;;15.40;99.90;;;;;;4938681;28;20077;-76
2023/09/28 06:46:31;;;;;;;21.45;19.95;;;15.50;99.90;;;;;;4944727;28;20066;-78
2023/09/28 06:48:59;;;;;;;22.58;20.88;;;15.70;99.90;;;;;;4945342;28;20040;-79
2023/09/28 06:51:27;;;;;;;21.67;20.17;;;15.80;99.90;;;;;;4943281;28;20050;-77
2023/09/28 06:53:54;;;;;;;20.92;19.48;;;15.80;99.90;;;;;;4946110;28;20070;-78
2023/09/28 06:56:21;;;;;;;21.23;19.60;;;15.80;99.90;;;;;;4942194;28;20289;-78
2023/09/28 06:58:50;;;;;;;21.00;19.60;;;16.00;99.90;;;;;;4944029;28;20062;-78
2023/09/28 07:01:18;;;;;;;21.10;19.65;;;16.20;99.90;;;;;;4941040;28;20043;-78
2023/09/28 07:03:45;;;;;;;22.30;20.80;;;16.40;99.90;;;;;;4951712;28;20145;-78
2023/09/28 07:06:12;;;;;;;20.33;19.02;;;16.40;99.90;;;;;;4925403;28;20075;-77
2023/09/28 07:08:39;;;;;;;22.23;20.65;;;16.50;99.90;;;;;;4951788;28;20107;-77
2023/09/28 07:11:06;;;;;;;22.38;20.67;;;16.50;99.90;;;;;;4938214;28;20047;-78
2023/09/28 07:13:34;;;;;;;22.35;20.75;;;16.70;99.90;;;;;;4958675;28;20038;-78
2023/09/28 07:16:00;;;;;;;21.42;20.02;;;16.90;99.90;;;;;;4931119;28;20058;-77
2023/09/28 07:18:27;;;;;;;21.48;19.88;;;17.00;99.90;;;;;;4950402;28;20050;-75
2023/09/28 07:20:55;;;;;;;21.70;20.13;;;17.00;99.90;;;;;;4927799;28;20058;-78
2023/09/28 07:23:22;;;;;;;23.08;21.17;;;17.20;99.90;;;;;;4941548;28;20105;-80
2023/09/28 07:25:51;;;;;;;22.23;20.65;;;17.30;99.90;;;;;;4954328;28;20046;-79
2023/09/28 07:28:20;;;;;;;23.13;21.42;;;17.40;99.90;;;;;;4953144;28;20047;-79
2023/09/28 07:30:47;;;;;;;23.75;21.95;;;17.40;99.90;;;;;;4952966;28;20035;-79
2023/09/28 07:33:15;;;;;;;24.23;22.63;;;17.50;99.90;;;;;;4954185;28;20047;-79
2023/09/28 07:35:46;;;;;;;23.42;21.60;;;17.60;99.90;;;;;;4956284;28;20046;-79
2023/09/28 07:38:13;;;;;;;23.38;21.83;;;17.80;99.90;;;;;;4939594;28;20055;-79
2023/09/28 07:40:40;;;;;;;24.52;22.40;;;18.00;99.90;;;;;;4969323;28;20067;-82
2023/09/28 07:43:09;;;;;;;24.60;22.65;;;18.40;99.90;;;;;;4928509;28;20093;-79
2023/09/28 07:45:37;;;;;;;23.90;22.20;;;18.80;99.90;;;;;;4944845;28;20474;-82
2023/09/28 07:48:05;;;;;;;23.35;21.75;;;19.30;99.90;;;;;;4951297;28;20057;-80
2023/09/28 07:50:32;;;;;;;24.95;23.00;;;19.60;99.90;;;;;;4944200;28;20039;-79
2023/09/28 07:52:59;;;;;;;24.40;22.52;;;19.90;99.90;;;;;;4948332;28;20058;-82
2023/09/28 07:55:26;;;;;;;24.50;22.80;;;20.20;99.90;;;;;;4948141;28;20125;-81
2023/09/28 07:57:53;;;;;;;24.20;22.25;;;20.40;99.90;;;;;;4949055;28;20125;-80
2023/09/28 08:00:27;;;;;;;24.98;22.95;;;20.50;99.90;;;;;;4945990;28;20047;-80
2023/09/28 08:02:55;;;;;;;25.08;23.23;;;20.70;99.90;;;;;;4935175;28;20049;-80
2023/09/28 08:05:22;;;;;;;24.90;22.88;;;20.80;99.90;;;;;;4946382;28;20050;-81
2023/09/28 08:07:49;;;;;;;24.92;22.77;;;21.00;99.90;;;;;;4945879;28;20044;-81
2023/09/28 08:10:36;;;;;;;24.98;23.10;;;21.10;99.90;;;;;;4946319;28;20465;-80
2023/09/28 08:13:03;;;;;;;24.63;22.77;;;21.30;99.90;;;;;;4954288;28;20059;-82
2023/09/28 08:15:30;;;;;;;24.90;23.10;;;21.70;99.90;;;;;;4962672;28;20644;-80
2023/09/28 08:18:03;;;;;;;24.30;22.60;;;21.80;99.90;;;;;;4950113;28;20668;-81
2023/09/28 08:20:33;;;;;;;24.65;22.73;;;21.90;99.90;;;;;;4963518;28;20113;-82
2023/09/28 08:23:04;;;;;;;24.65;22.55;;;22.00;99.90;;;;;;4948889;28;20137;-80
2023/09/28 08:25:31;;;;;;;24.20;22.20;;;22.10;99.90;;;;;;4934654;28;20046;-80
2023/09/28 08:27:59;;;;;;;24.98;22.95;;;22.10;99.90;;;;;;4937171;28;20038;-79
2023/09/28 08:30:25;;;;;;;23.83;22.23;;;22.10;99.90;;;;;;4947632;28;20058;-79
2023/09/28 08:32:53;;;;;;;24.65;22.85;;;22.20;99.90;;;;;;4935447;28;20055;-80
2023/09/28 08:35:20;;;;;;;24.15;22.25;;;22.20;99.90;;;;;;4934945;28;20055;-79
2023/09/28 08:37:48;;;;;;;25.35;23.15;;;22.30;99.90;;;;;;4938990;28;20075;-80
2023/09/28 08:40:15;;;;;;;25.15;23.20;;;22.40;99.90;;;;;;4939804;28;20166;-81
2023/09/28 08:42:45;;;;;;;26.27;24.45;;;22.60;99.90;;;;;;4914571;28;20130;-81
2023/09/28 08:45:16;;;;;;;27.10;25.05;;;22.70;99.90;;;;;;4943063;28;20134;-80
2023/09/28 08:47:49;;;;;;;26.98;24.95;;;22.80;99.90;;;;;;4951849;28;20097;-81
2023/09/28 08:50:25;;;;;;;26.42;24.58;;;22.90;99.90;;;;;;4947118;28;20099;-81
2023/09/28 08:52:54;;;;;;;27.00;24.88;;;23.00;99.90;;;;;;4948960;28;20054;-80
2023/09/28 08:55:23;;;;;;;26.80;24.63;;;23.00;99.90;;;;;;4946418;28;20972;-80
2023/09/28 08:57:51;;;;;;;26.05;24.25;;;22.90;99.90;;;;;;4973483;28;20137;-80
2023/09/28 09:00:22;;;;;;;27.20;25.20;;;23.00;99.90;;;;;;4946191;28;20648;-80
2023/09/28 09:02:51;;;;;;;26.30;24.08;;;23.20;99.90;;;;;;4948032;28;20129;-80
2023/09/28 09:05:19;;;;;;;26.75;24.52;;;23.30;99.90;;;;;;4961554;28;20043;-80
2023/09/28 09:07:47;;;;;;;25.48;23.70;;;23.20;99.90;;;;;;4949156;28;20126;-79
2023/09/28 09:10:26;;;;;;;25.92;23.83;;;23.20;99.90;;;;;;4948385;28;20043;-82
2023/09/28 09:12:54;;;;;;;26.38;24.38;;;23.20;99.90;;;;;;4952289;28;20460;-79
2023/09/28 09:15:22;;;;;;;27.05;25.27;;;23.30;99.90;;;;;;4956680;28;20065;-80
2023/09/28 09:17:59;;;;;;;26.65;24.80;;;23.50;99.90;;;;;;4951395;28;20051;-79
2023/09/28 09:20:29;;;;;;;27.17;24.98;;;23.30;99.90;;;;;;4956437;28;20074;-80
2023/09/28 09:23:11;;;;;;;27.17;25.27;;;23.30;99.90;;;;;;4946712;28;20090;-79
2023/09/28 09:25:43;;;;;;;27.58;25.50;;;23.10;99.90;;;;;;4964812;28;20039;-80
2023/09/28 09:28:12;;;;;;;28.38;26.17;;;23.00;99.90;;;;;;4951835;28;20061;-79
2023/09/28 09:30:40;;;;;;;28.55;26.55;;;23.20;99.90;;;;;;4958685;28;20105;-79
2023/09/28 09:33:07;;;;;;;29.02;26.83;;;23.40;99.90;;;;;;4956322;28;20142;-79
2023/09/28 09:35:35;;;;;;;28.42;26.10;;;23.30;99.90;;;;;;4958907;28;20050;-80
2023/09/28 09:38:02;;;;;;;28.65;26.35;;;23.50;99.90;;;;;;4974725;28;20050;-79
2023/09/28 09:40:31;;;;;;;27.33;25.33;;;23.50;99.90;;;;;;4956238;28;20054;-79
2023/09/28 09:43:16;;;;;;;30.77;28.38;;;23.40;99.90;;;;;;4970629;28;20046;-80
2023/09/28 09:45:43;;;;;;;29.52;27.05;;;23.50;99.90;;;;;;4972884;28;20163;-80
2023/09/28 09:48:11;;;;;;;29.92;27.85;;;23.50;99.90;;;;;;4950162;28;20047;-81
2023/09/28 09:50:38;;;;;;;29.10;26.83;;;23.80;99.90;;;;;;4963777;28;21054;-80
2023/09/28 09:53:07;;;;;;;29.52;27.42;;;23.90;99.90;;;;;;4936013;28;20047;-79
2023/09/28 09:55:39;;;;;;;28.52;26.15;;;23.70;99.90;;;;;;4951829;28;20066;-79
2023/09/28 09:58:14;;;;;;;29.17;27.02;;;23.50;99.90;;;;;;4962822;28;20088;-80
2023/09/28 10:00:42;;;;;;;28.55;26.33;;;23.30;99.90;;;;;;4938282;28;20078;-80
2023/09/28 10:03:10;;;;;;;29.15;26.75;;;23.20;99.90;;;;;;4957203;28;20067;-79
2023/09/28 10:05:38;;;;;;;28.75;26.42;;;23.00;99.90;;;;;;4942649;28;20121;-80
2023/09/28 10:08:07;;;;;;;29.00;26.48;;;22.80;99.90;;;;;;4951631;28;20144;-80
2023/09/28 10:10:35;;;;;;;29.33;26.85;;;22.70;99.90;;;;;;4949344;28;20150;-79
2023/09/28 10:13:02;;;;;;;28.23;26.02;;;22.70;99.90;;;;;;4951190;28;20604;-79
2023/09/28 10:15:30;;;;;;;28.55;26.38;;;22.90;99.90;;;;;;4949546;28;20051;-79
2023/09/28 10:17:57;;;;;;;28.50;26.30;;;22.90;99.90;;;;;;4928751;28;20473;-79
2023/09/28 10:20:25;;;;;;;28.73;26.40;;;23.00;99.90;;;;;;4958688;28;20500;-79
2023/09/28 10:22:54;;;;;;;28.70;26.50;;;23.00;99.90;;;;;;4947206;28;20055;-80
2023/09/28 10:25:23;;;;;;;29.77;26.73;;;23.30;99.90;;;;;;4950011;28;20068;-80
2023/09/28 10:27:57;;;;;;;28.83;26.55;;;23.40;99.90;;;;;;4933717;28;20307;-80
2023/09/28 10:30:25;;;;;;;28.38;26.15;;;23.60;99.90;;;;;;4925313;28;20765;-78
2023/09/28 10:32:54;;;;;;;28.42;26.10;;;23.80;99.90;;;;;;4928813;28;20042;-77
2023/09/28 10:35:29;;;;;;;27.88;25.67;;;23.90;99.90;;;;;;4946514;28;20043;-77
2023/09/28 10:38:22;;;;;;;29.35;26.73;;;23.80;99.90;;;;;;4946671;28;20543;-78
2023/09/28 10:40:58;;;;;;;29.67;26.75;;;23.70;99.90;;;;;;4945389;28;20077;-79
2023/09/28 10:43:30;;;;;;;28.02;26.00;;;23.70;99.90;;;;;;4958512;28;20039;-78
2023/09/28 10:49:06;;;;;;;29.45;26.60;;;24.10;99.90;;;;;;4951515;28;20054;-78
2023/09/28 10:51:56;;;;;;;27.83;25.75;;;24.10;99.90;;;;;;4957554;28;20054;-78
2023/09/28 10:54:39;;;;;;;28.45;26.35;;;24.30;99.90;;;;;;4928921;28;20047;-78
2023/09/28 10:57:06;;;;;;;28.92;26.55;;;24.40;99.90;;;;;;4936990;28;20582;-78
2023/09/28 10:59:36;;;;;;;28.02;25.92;;;24.30;99.90;;;;;;4931396;28;20067;-78
2023/09/28 11:02:04;;;;;;;28.38;26.00;;;24.10;99.90;;;;;;4944385;28;20109;-78
2023/09/28 11:04:31;;;;;;;28.58;26.30;;;23.90;99.90;;;;;;4928387;28;20030;-78
2023/09/28 11:07:17;;;;;;;28.23;26.10;;;23.80;99.90;;;;;;4970041;28;20054;-77
2023/09/28 11:09:43;;;;;;;29.42;27.13;;;23.80;99.90;;;;;;4970858;28;20469;-77
2023/09/28 11:12:10;;;;;;;28.85;26.63;;;23.90;99.90;;;;;;4957670;28;20046;-77
2023/09/28 11:14:42;;;;;;;29.27;26.83;;;23.90;99.90;;;;;;4926658;28;20134;-77
2023/09/28 11:17:09;;;;;;;30.25;28.05;;;23.60;99.90;;;;;;4946333;28;20051;-77
2023/09/28 11:19:36;;;;;;;28.98;26.75;;;23.50;99.90;;;;;;4955535;28;20043;-77
2023/09/28 11:22:03;;;;;;;28.42;26.25;;;23.70;99.90;;;;;;4942627;28;20055;-77
2023/09/28 11:24:29;;;;;;;30.08;27.63;;;23.90;99.90;;;;;;4970934;28;20047;-77
2023/09/28 11:26:57;;;;;;;30.08;27.70;;;23.80;99.90;;;;;;4942355;28;20137;-78
2023/09/28 11:29:25;;;;;;;28.67;26.67;;;23.90;99.90;;;;;;4957601;28;20111;-78
2023/09/28 11:31:53;;;;;;;30.75;28.25;;;24.20;99.90;;;;;;4940509;28;20122;-77
2023/09/28 11:34:37;;;;;;;29.15;26.48;;;24.60;99.90;;;;;;4946773;28;20055;-78
2023/09/28 11:37:09;;;;;;;31.48;28.77;;;24.70;99.90;;;;;;4974209;28;20060;-77
2023/09/28 11:39:38;;;;;;;29.55;27.08;;;24.50;99.90;;;;;;4962685;28;20047;-82
2023/09/28 11:42:07;;;;;;;30.25;27.73;;;24.50;99.90;;;;;;4947562;28;20057;-79
2023/09/28 11:44:51;;;;;;;29.15;26.90;;;24.20;99.90;;;;;;4957988;28;20057;-78
2023/09/28 11:47:20;;;;;;;30.35;28.05;;;24.30;99.90;;;;;;4948758;28;20043;-80
2023/09/28 11:49:50;;;;;;;30.20;27.67;;;24.20;99.90;;;;;;4956570;28;20038;-80
2023/09/28 11:52:19;;;;;;;30.98;28.63;;;24.20;99.90;;;;;;4948757;28;20662;-79
2023/09/28 11:54:49;;;;;;;29.00;26.90;;;24.20;99.90;;;;;;4950571;28;20103;-79
2023/09/28 11:57:18;;;;;;;29.73;27.52;;;24.10;99.90;;;;;;4945616;28;20039;-79
2023/09/28 11:59:45;;;;;;;31.08;28.38;;;24.20;99.90;;;;;;4947709;28;20035;-79
2023/09/28 12:02:13;;;;;;;30.80;28.23;;;24.00;99.90;;;;;;4964446;28;20140;-79
2023/09/28 12:04:41;;;;;;;30.40;28.02;;;24.00;99.90;;;;;;4949329;28;20043;-79
2023/09/28 12:07:08;;;;;;;30.38;27.83;;;23.90;99.90;;;;;;4964018;28;20050;-80
2023/09/28 12:09:35;;;;;;;29.75;27.45;;;24.10;99.90;;;;;;4950935;28;20057;-79
2023/09/28 12:12:10;;;;;;;30.17;27.60;;;24.30;99.90;;;;;;4949643;28;20051;-80
2023/09/28 12:14:38;;;;;;;30.67;28.48;;;24.50;99.90;;;;;;4949269;28;20047;-80
2023/09/28 12:17:05;;;;;;;30.38;28.17;;;24.60;99.90;;;;;;4963225;28;20189;-81
2023/09/28 12:19:35;;;;;;;30.25;27.65;;;24.70;99.90;;;;;;4949315;28;20043;-80
2023/09/28 12:22:03;;;;;;;29.65;27.55;;;24.70;99.90;;;;;;4957177;28;20042;-79
2023/09/28 12:24:33;;;;;;;30.80;28.23;;;24.70;99.90;;;;;;4935211;28;20047;-80
2023/09/28 12:27:06;;;;;;;29.25;26.98;;;24.50;99.90;;;;;;4976099;28;20047;-80
2023/09/28 12:29:35;;;;;;;29.75;27.45;;;24.40;99.90;;;;;;4963227;28;20042;-80
2023/09/28 12:32:03;;;;;;;30.60;27.83;;;24.50;99.90;;;;;;4964571;28;20050;-80
2023/09/28 12:34:30;;;;;;;30.13;27.73;;;24.60;99.90;;;;;;4957447;28;20114;-81
2023/09/28 12:36:57;;;;;;;30.58;28.17;;;24.60;99.90;;;;;;4957128;28;20731;-81
2023/09/28 12:39:24;;;;;;;30.25;27.70;;;24.60;99.90;;;;;;4953769;28;20735;-81
2023/09/28 12:42:01;;;;;;;30.13;27.83;;;24.50;99.90;;;;;;4960956;28;20054;-78
2023/09/28 12:44:28;;;;;;;29.70;27.35;;;24.50;99.90;;;;;;4970470;28;20089;-77